Time;durP1;ratioP1;P1;durP2;ratioP2;P2;SDS_P1;SDS_P2;PMS_P1;PMS_P2;Temp;Humidity;BMP_temperature;BMP_pressure;BME280_temperature;BME280_humidity;BME280_pressure;Samples;Min_cycle;Max_cycle;Signal;HPM_P1;HPM_P2
2022/12/31 00:01:13;;;;;;;22.90;4.53;;;;;;;;;;5075292;28;20291;-84
2022/12/31 00:03:39;;;;;;;17.83;3.77;;;;;;;;;;5075415;28;20307;-84
2022/12/31 00:06:16;;;;;;;18.13;4.33;;;;;;;;;;5075318;28;20290;-84
2022/12/31 00:08:43;;;;;;;23.97;4.27;;;;;;;;;;5057999;28;20615;-84
2022/12/31 00:11:09;;;;;;;21.50;3.87;;;;;;;;;;5058208;28;20286;-83
2022/12/31 00:13:35;;;;;;;21.37;4.10;;;;;;;;;;5075130;28;20302;-84
2022/12/31 00:16:15;;;;;;;25.97;4.73;;;;;;;;;;5074891;28;20358;-84
2022/12/31 00:18:45;;;;;;;22.07;4.57;;;;;;;;;;5057384;28;20310;-84
2022/12/31 00:21:12;;;;;;;30.50;5.03;;;;;;;;;;5074869;28;20650;-84
2022/12/31 00:23:39;;;;;;;23.33;4.80;;;;;;;;;;5074963;28;20281;-84
2022/12/31 00:26:06;;;;;;;24.57;5.53;;;;;;;;;;5040662;28;20294;-84
2022/12/31 00:28:33;;;;;;;28.40;5.43;;;;;;;;;;5074873;28;20315;-84
2022/12/31 00:31:09;;;;;;;21.07;4.47;;;;;;;;;;5074742;28;20358;-84
2022/12/31 00:33:36;;;;;;;25.13;4.17;;;;;;;;;;5057352;28;20327;-83
2022/12/31 00:36:06;;;;;;;25.57;5.00;;;;;;;;;;5075105;28;20279;-84
2022/12/31 00:38:32;;;;;;;29.70;4.60;;;;;;;;;;5056876;28;20622;-84
2022/12/31 00:40:58;;;;;;;25.47;5.03;;;;;;;;;;5056892;28;20838;-84
2022/12/31 00:43:24;;;;;;;30.33;4.63;;;;;;;;;;5074607;28;20670;-83
2022/12/31 00:45:50;;;;;;;27.33;5.13;;;;;;;;;;5056903;28;20318;-83
2022/12/31 00:48:16;;;;;;;36.67;5.67;;;;;;;;;;5074452;28;20322;-84
2022/12/31 00:50:43;;;;;;;23.77;4.97;;;;;;;;;;5056601;28;20278;-84
2022/12/31 00:53:09;;;;;;;22.57;3.93;;;;;;;;;;5056740;28;20322;-84
2022/12/31 00:55:35;;;;;;;22.97;5.00;;;;;;;;;;5056508;28;20336;-85
2022/12/31 00:58:01;;;;;;;23.67;4.20;;;;;;;;;;5074420;28;20271;-84
2022/12/31 01:00:27;;;;;;;24.70;5.27;;;;;;;;;;5074087;28;20294;-84
2022/12/31 01:02:53;;;;;;;23.40;5.27;;;;;;;;;;5074267;28;20374;-84
2022/12/31 01:05:19;;;;;;;22.33;4.40;;;;;;;;;;5056523;28;20317;-84
2022/12/31 01:07:46;;;;;;;24.73;5.07;;;;;;;;;;5056470;28;20370;-83
2022/12/31 01:11:17;;;;;;;29.33;4.40;;;;;;;;;;5056230;28;20311;-84
2022/12/31 01:12:58;;;;;;;25.70;4.63;;;;;;;;;;5073929;28;20291;-84
2022/12/31 01:15:25;;;;;;;25.43;5.23;;;;;;;;;;5073899;28;20279;-84
2022/12/31 01:17:51;;;;;;;25.53;4.97;;;;;;;;;;5074503;28;20310;-84
2022/12/31 01:20:17;;;;;;;22.03;4.40;;;;;;;;;;5039446;28;20712;-84
2022/12/31 01:22:43;;;;;;;20.77;4.33;;;;;;;;;;5056220;28;20314;-84
2022/12/31 01:25:09;;;;;;;17.53;3.93;;;;;;;;;;5055980;28;20362;-84
2022/12/31 01:27:35;;;;;;;21.53;4.67;;;;;;;;;;5073591;28;20286;-85
2022/12/31 01:30:01;;;;;;;23.43;4.47;;;;;;;;;;5039945;28;20374;-84
2022/12/31 01:32:27;;;;;;;24.70;5.27;;;;;;;;;;5056261;28;20337;-84
2022/12/31 01:34:54;;;;;;;21.37;5.03;;;;;;;;;;5073920;28;20310;-84
2022/12/31 01:37:20;;;;;;;19.53;4.97;;;;;;;;;;5073571;28;20362;-85
2022/12/31 01:39:46;;;;;;;21.93;4.33;;;;;;;;;;5074146;28;20362;-84
2022/12/31 01:42:12;;;;;;;20.90;4.73;;;;;;;;;;5073543;28;20294;-84
2022/12/31 01:44:38;;;;;;;23.43;4.70;;;;;;;;;;5055694;28;20794;-84
2022/12/31 01:47:05;;;;;;;20.30;4.90;;;;;;;;;;5073517;28;20282;-84
2022/12/31 01:49:46;;;;;;;23.77;5.77;;;;;;;;;;5073478;28;20354;-84
2022/12/31 01:52:23;;;;;;;18.87;5.80;;;;;;;;;;5055758;28;20298;-84
2022/12/31 01:54:51;;;;;;;18.80;4.80;;;;;;;;;;5073480;28;20362;-84
2022/12/31 01:57:18;;;;;;;19.40;5.33;;;;;;;;;;5073408;28;20290;-83
2022/12/31 01:59:44;;;;;;;18.87;5.00;;;;;;;;;;5055615;28;20297;-84
2022/12/31 02:02:11;;;;;;;15.57;4.63;;;;;;;;;;5073839;28;20295;-84
2022/12/31 02:04:37;;;;;;;16.77;4.83;;;;;;;;;;5073818;28;20503;-84
2022/12/31 02:07:05;;;;;;;18.53;5.43;;;;;;;;;;5073617;28;20746;-84
2022/12/31 02:09:32;;;;;;;14.63;4.27;;;;;;;;;;5073326;28;20773;-83
2022/12/31 02:11:59;;;;;;;11.70;3.83;;;;;;;;;;5055523;28;20730;-84
2022/12/31 02:14:33;;;;;;;15.50;4.13;;;;;;;;;;5073317;28;20643;-83
2022/12/31 02:16:59;;;;;;;15.43;4.17;;;;;;;;;;5073494;28;20409;-84
2022/12/31 02:19:43;;;;;;;14.93;4.13;;;;;;;;;;5073166;28;20826;-84
2022/12/31 02:22:28;;;;;;;16.43;4.27;;;;;;;;;;5073118;28;20378;-83
2022/12/31 02:25:30;;;;;;;16.40;4.60;;;;;;;;;;5055304;28;20309;-84
2022/12/31 02:28:14;;;;;;;15.00;4.30;;;;;;;;;;4972162;28;20369;-83
2022/12/31 02:30:41;;;;;;;15.37;4.47;;;;;;;;;;5048299;28;20322;-83
2022/12/31 02:33:07;;;;;;;10.63;3.77;;;;;;;;;;5073010;28;20366;-83
2022/12/31 02:35:42;;;;;;;14.17;3.87;;;;;;;;;;5055234;28;20382;-83
2022/12/31 02:38:13;;;;;;;20.95;4.30;;;;;;;;;;5073627;28;20318;-83
2022/12/31 02:40:39;;;;;;;17.63;4.07;;;;;;;;;;5074073;28;20080;-83
2022/12/31 02:43:05;;;;;;;10.50;3.90;;;;;;;;;;5042598;28;20290;-83
2022/12/31 02:45:34;;;;;;;10.27;3.93;;;;;;;;;;5077275;28;20315;-83
2022/12/31 02:48:14;;;;;;;14.57;3.80;;;;;;;;;;5076746;28;20283;-83
2022/12/31 02:50:54;;;;;;;9.90;3.37;;;;;;;;;;5042705;28;20417;-83
2022/12/31 02:53:20;;;;;;;11.43;3.93;;;;;;;;;;5059506;28;20612;-83
2022/12/31 02:55:57;;;;;;;11.33;3.13;;;;;;;;;;5059539;28;20287;-83
2022/12/31 03:06:49;;;;;;;7.70;2.42;;;;;;;;;;5076390;28;20289;-84
2022/12/31 03:09:16;;;;;;;9.77;2.30;;;;;;;;;;5076905;28;20136;-83
2022/12/31 03:14:26;;;;;;;11.23;2.25;;;;;;;;;;5076099;28;20572;-83
2022/12/31 03:16:53;;;;;;;9.00;1.90;;;;;;;;;;5058630;28;20135;-83
2022/12/31 03:27:33;;;;;;;9.18;1.70;;;;;;;;;;5076399;28;20461;-84
2022/12/31 03:29:59;;;;;;;10.80;2.13;;;;;;;;;;5059096;28;20135;-84
2022/12/31 03:32:25;;;;;;;7.70;1.60;;;;;;;;;;5076503;28;20307;-84
2022/12/31 03:34:51;;;;;;;6.87;1.47;;;;;;;;;;5075834;28;20322;-84
2022/12/31 03:37:17;;;;;;;8.60;1.57;;;;;;;;;;5075883;28;20767;-84
2022/12/31 03:39:43;;;;;;;12.90;1.90;;;;;;;;;;5076293;28;20352;-83
2022/12/31 03:42:09;;;;;;;11.67;2.13;;;;;;;;;;5075752;28;20385;-83
2022/12/31 03:44:35;;;;;;;9.57;1.67;;;;;;;;;;5058395;28;20319;-84
2022/12/31 03:47:02;;;;;;;8.10;1.43;;;;;;;;;;5041205;28;20365;-84
2022/12/31 03:49:28;;;;;;;11.60;2.27;;;;;;;;;;5075424;28;20817;-84
2022/12/31 03:51:54;;;;;;;10.30;1.60;;;;;;;;;;5075168;28;20318;-83
2022/12/31 03:54:20;;;;;;;8.40;1.90;;;;;;;;;;5075575;28;20310;-83
2022/12/31 03:56:46;;;;;;;10.20;2.17;;;;;;;;;;5057768;28;20321;-83
2022/12/31 03:59:12;;;;;;;16.07;2.60;;;;;;;;;;5075295;28;20845;-84
2022/12/31 04:01:38;;;;;;;9.77;2.10;;;;;;;;;;5075310;28;20386;-83
2022/12/31 04:04:04;;;;;;;9.23;1.80;;;;;;;;;;5075527;28;20323;-83
2022/12/31 04:06:30;;;;;;;12.70;2.47;;;;;;;;;;5041194;28;20363;-83
2022/12/31 04:08:56;;;;;;;6.20;1.57;;;;;;;;;;5075776;28;20884;-83
2022/12/31 04:11:23;;;;;;;9.30;1.80;;;;;;;;;;5057354;28;20361;-83
2022/12/31 04:13:49;;;;;;;12.73;2.23;;;;;;;;;;5057533;28;20374;-83
2022/12/31 04:16:15;;;;;;;14.93;2.50;;;;;;;;;;5074935;28;20762;-83
2022/12/31 04:18:41;;;;;;;10.57;2.03;;;;;;;;;;5058244;28;20408;-83
2022/12/31 04:21:07;;;;;;;11.40;2.30;;;;;;;;;;5075261;28;20340;-83
2022/12/31 04:23:33;;;;;;;13.53;1.70;;;;;;;;;;5075504;28;20287;-83
2022/12/31 04:25:59;;;;;;;9.47;2.07;;;;;;;;;;5075178;28;20377;-83
2022/12/31 04:28:25;;;;;;;10.37;2.13;;;;;;;;;;5057653;28;20650;-82
2022/12/31 04:30:51;;;;;;;9.27;2.00;;;;;;;;;;5074935;28;20319;-82
2022/12/31 04:33:17;;;;;;;9.50;1.90;;;;;;;;;;5057059;28;20365;-82
2022/12/31 04:35:44;;;;;;;8.03;2.30;;;;;;;;;;5074762;28;20321;-82
2022/12/31 04:38:10;;;;;;;9.97;1.70;;;;;;;;;;5056918;28;20279;-82
2022/12/31 04:41:15;;;;;;;9.53;2.00;;;;;;;;;;5056854;28;20314;-82
2022/12/31 04:43:22;;;;;;;13.23;2.50;;;;;;;;;;5057418;28;20279;-83
2022/12/31 04:45:48;;;;;;;10.03;2.17;;;;;;;;;;5057017;28;20291;-82
2022/12/31 04:48:14;;;;;;;10.70;2.20;;;;;;;;;;5074540;28;20290;-82
2022/12/31 04:50:40;;;;;;;10.60;2.17;;;;;;;;;;5074392;28;20286;-82
2022/12/31 04:53:06;;;;;;;14.47;2.87;;;;;;;;;;5074672;28;20357;-82
2022/12/31 04:55:33;;;;;;;16.27;2.87;;;;;;;;;;5074366;28;20278;-83
2022/12/31 04:57:59;;;;;;;9.13;2.40;;;;;;;;;;5056505;28;20326;-81
2022/12/31 05:00:25;;;;;;;13.13;2.60;;;;;;;;;;5074190;28;20283;-82
2022/12/31 05:02:51;;;;;;;11.73;2.23;;;;;;;;;;5073505;28;20283;-82
2022/12/31 05:05:17;;;;;;;18.53;3.00;;;;;;;;;;5074097;28;20361;-81
2022/12/31 05:07:43;;;;;;;15.07;2.70;;;;;;;;;;5074056;28;20278;-82
2022/12/31 05:10:09;;;;;;;11.93;2.27;;;;;;;;;;5056493;28;20638;-81
2022/12/31 05:12:35;;;;;;;13.73;3.40;;;;;;;;;;5074004;28;20279;-81
2022/12/31 05:15:01;;;;;;;16.20;3.10;;;;;;;;;;5073930;28;20283;-81
2022/12/31 05:17:27;;;;;;;14.80;3.10;;;;;;;;;;5074432;28;20279;-82
2022/12/31 05:19:54;;;;;;;16.03;3.33;;;;;;;;;;5056479;28;20369;-82
2022/12/31 05:22:29;;;;;;;12.43;3.30;;;;;;;;;;5056726;28;20314;-82
2022/12/31 05:24:56;;;;;;;17.73;3.40;;;;;;;;;;5056505;28;20684;-82
2022/12/31 05:27:22;;;;;;;14.90;3.73;;;;;;;;;;5056517;28;20049;-82
2022/12/31 05:29:48;;;;;;;14.60;3.60;;;;;;;;;;5074302;28;20333;-82
2022/12/31 05:32:14;;;;;;;10.90;3.80;;;;;;;;;;5056023;28;20412;-82
2022/12/31 05:34:40;;;;;;;13.10;4.10;;;;;;;;;;5074386;28;20373;-81
2022/12/31 05:37:07;;;;;;;15.77;5.10;;;;;;;;;;5055979;28;20373;-82
2022/12/31 05:39:33;;;;;;;13.23;4.83;;;;;;;;;;5074156;28;20310;-82
2022/12/31 05:41:59;;;;;;;11.87;5.33;;;;;;;;;;5055673;28;20365;-82
2022/12/31 05:44:25;;;;;;;16.20;6.40;;;;;;;;;;5073484;28;20318;-81
2022/12/31 05:46:51;;;;;;;16.27;5.87;;;;;;;;;;5073534;28;20357;-81
2022/12/31 05:49:17;;;;;;;16.80;6.57;;;;;;;;;;5055595;28;20287;-81
2022/12/31 05:51:43;;;;;;;15.73;5.63;;;;;;;;;;5073359;28;20279;-80
2022/12/31 05:54:09;;;;;;;12.97;5.70;;;;;;;;;;5073650;28;20703;-80
2022/12/31 05:56:36;;;;;;;15.43;6.63;;;;;;;;;;5055785;28;20881;-81
2022/12/31 05:59:02;;;;;;;15.80;6.53;;;;;;;;;;5073277;28;20352;-82
2022/12/31 06:01:28;;;;;;;14.73;7.03;;;;;;;;;;5055235;28;20383;-83
2022/12/31 06:03:54;;;;;;;11.20;5.10;;;;;;;;;;5073294;28;20321;-82
2022/12/31 06:06:20;;;;;;;9.27;3.70;;;;;;;;;;5073327;28;20314;-82
2022/12/31 06:08:50;;;;;;;12.43;4.70;;;;;;;;;;5073285;28;20283;-83
2022/12/31 06:11:16;;;;;;;15.80;7.13;;;;;;;;;;5073246;28;20271;-82
2022/12/31 06:13:43;;;;;;;14.43;6.23;;;;;;;;;;5073301;28;20362;-82
2022/12/31 06:16:09;;;;;;;11.63;7.20;;;;;;;;;;5077136;28;20336;-83
2022/12/31 06:18:35;;;;;;;10.67;6.90;;;;;;;;;;5077353;28;20278;-83
2022/12/31 06:21:02;;;;;;;12.97;7.90;;;;;;;;;;5077489;28;20294;-82
2022/12/31 06:23:29;;;;;;;11.83;5.47;;;;;;;;;;5077287;28;20289;-82
2022/12/31 06:25:55;;;;;;;11.17;6.40;;;;;;;;;;5077802;28;20335;-82
2022/12/31 06:28:21;;;;;;;9.63;7.00;;;;;;;;;;5077127;28;20314;-82
2022/12/31 06:30:47;;;;;;;15.00;6.63;;;;;;;;;;5077114;28;20365;-82
2022/12/31 06:33:13;;;;;;;13.60;7.83;;;;;;;;;;5059683;28;20287;-81
2022/12/31 06:35:40;;;;;;;13.97;8.27;;;;;;;;;;5043383;28;20619;-81
2022/12/31 06:38:06;;;;;;;12.83;8.37;;;;;;;;;;5076973;28;20279;-81
2022/12/31 06:40:32;;;;;;;15.43;7.37;;;;;;;;;;5076908;28;20314;-81
2022/12/31 06:42:58;;;;;;;14.17;8.07;;;;;;;;;;5076592;28;20793;-81
2022/12/31 06:45:24;;;;;;;12.27;6.77;;;;;;;;;;5059210;28;20291;-81
2022/12/31 06:47:50;;;;;;;14.23;6.30;;;;;;;;;;5077074;28;20293;-82
2022/12/31 06:50:16;;;;;;;12.83;7.27;;;;;;;;;;5058919;28;20282;-81
2022/12/31 06:52:43;;;;;;;11.97;5.77;;;;;;;;;;5077280;28;20285;-81
2022/12/31 06:55:09;;;;;;;12.77;5.87;;;;;;;;;;5076671;28;20275;-80
2022/12/31 06:57:36;;;;;;;11.50;5.00;;;;;;;;;;5058524;28;20774;-81
2022/12/31 07:00:03;;;;;;;13.37;5.50;;;;;;;;;;5076352;28;20302;-81
2022/12/31 07:02:45;;;;;;;8.97;4.87;;;;;;;;;;5076298;28;20775;-81
2022/12/31 07:05:26;;;;;;;9.50;4.43;;;;;;;;;;5058591;28;20314;-81
2022/12/31 07:08:14;;;;;;;12.87;5.00;;;;;;;;;;5059153;28;20307;-82
2022/12/31 07:10:52;;;;;;;15.50;5.60;;;;;;;;;;5076449;28;20381;-81
2022/12/31 07:13:18;;;;;;;10.57;4.87;;;;;;;;;;5059419;28;20764;-80
2022/12/31 07:15:50;;;;;;;14.63;5.83;;;;;;;;;;5076272;28;20283;-79
2022/12/31 07:18:26;;;;;;;10.43;5.70;;;;;;;;;;5076229;28;20279;-80
2022/12/31 07:20:52;;;;;;;16.60;6.72;;;;;;;;;;5076652;28;20382;-80
2022/12/31 07:23:18;;;;;;;14.87;6.70;;;;;;;;;;5076042;28;20048;-79
2022/12/31 07:25:51;;;;;;;12.27;6.07;;;;;;;;;;5075782;28;20290;-78
2022/12/31 07:28:17;;;;;;;10.63;5.30;;;;;;;;;;5076231;28;20282;-79
2022/12/31 07:31:06;;;;;;;10.60;5.70;;;;;;;;;;5075953;28;20374;-78
2022/12/31 07:33:54;;;;;;;8.77;5.20;;;;;;;;;;5058173;28;20297;-79
2022/12/31 07:36:20;;;;;;;8.90;4.97;;;;;;;;;;5075939;28;20730;-79
2022/12/31 07:38:49;;;;;;;9.97;5.47;;;;;;;;;;5075942;28;20283;-80
2022/12/31 07:41:27;;;;;;;9.00;5.37;;;;;;;;;;5076043;28;20840;-80
2022/12/31 07:44:12;;;;;;;12.93;5.17;;;;;;;;;;5075473;28;20789;-79
2022/12/31 07:46:55;;;;;;;10.02;5.43;;;;;;;;;;5076283;28;20369;-79
2022/12/31 07:49:22;;;;;;;7.40;5.23;;;;;;;;;;5075397;28;20489;-80
2022/12/31 07:51:48;;;;;;;10.50;6.03;;;;;;;;;;5075632;28;20275;-80
2022/12/31 07:54:14;;;;;;;8.00;5.33;;;;;;;;;;5057931;28;20291;-81
2022/12/31 07:56:40;;;;;;;10.00;5.50;;;;;;;;;;5075569;28;20370;-81
2022/12/31 07:59:25;;;;;;;10.67;6.07;;;;;;;;;;5075714;28;20332;-80
2022/12/31 08:02:02;;;;;;;11.23;7.27;;;;;;;;;;5075378;28;20329;-80
2022/12/31 08:04:38;;;;;;;12.13;7.77;;;;;;;;;;5058203;28;20623;-80
2022/12/31 08:07:16;;;;;;;13.60;9.13;;;;;;;;;;5075732;28;20681;-81
2022/12/31 08:09:42;;;;;;;13.47;9.47;;;;;;;;;;5075392;28;20290;-80
2022/12/31 08:12:08;;;;;;;10.90;8.33;;;;;;;;;;5076072;28;20283;-81
2022/12/31 08:14:39;;;;;;;10.90;7.73;;;;;;;;;;5074959;28;20831;-80
2022/12/31 08:17:05;;;;;;;12.70;8.50;;;;;;;;;;5075718;28;20279;-81
2022/12/31 08:19:32;;;;;;;10.17;7.70;;;;;;;;;;5075173;28;20298;-81
2022/12/31 08:22:05;;;;;;;10.43;7.50;;;;;;;;;;5075311;28;20356;-80
2022/12/31 08:24:45;;;;;;;9.57;7.03;;;;;;;;;;5075119;28;20357;-80
2022/12/31 08:27:15;;;;;;;8.83;6.80;;;;;;;;;;5057629;28;20338;-80
2022/12/31 08:30:01;;;;;;;8.47;6.63;;;;;;;;;;5074957;28;20362;-80
2022/12/31 08:32:39;;;;;;;7.43;5.90;;;;;;;;;;5074887;28;20366;-80
2022/12/31 08:35:13;;;;;;;8.43;6.53;;;;;;;;;;5074734;28;20162;-80
2022/12/31 08:37:42;;;;;;;8.77;6.80;;;;;;;;;;5074728;28;20745;-80
2022/12/31 08:40:31;;;;;;;8.03;6.67;;;;;;;;;;5074699;28;20297;-81
2022/12/31 08:43:20;;;;;;;9.23;6.90;;;;;;;;;;5075255;28;20403;-81
2022/12/31 08:45:50;;;;;;;8.40;7.17;;;;;;;;;;5074180;28;20323;-82
2022/12/31 08:48:38;;;;;;;10.27;8.13;;;;;;;;;;5057717;28;20782;-84
2022/12/31 08:51:04;;;;;;;9.43;7.33;;;;;;;;;;5074514;28;20366;-81
2022/12/31 08:53:30;;;;;;;8.77;6.73;;;;;;;;;;5056899;28;20856;-84
2022/12/31 08:56:15;;;;;;;9.00;6.73;;;;;;;;;;5074360;28;20340;-83
2022/12/31 08:59:01;;;;;;;10.63;7.63;;;;;;;;;;5074014;28;20301;-84
2022/12/31 09:01:30;;;;;;;11.17;7.40;;;;;;;;;;5057642;28;20314;-84
2022/12/31 09:04:01;;;;;;;8.37;6.20;;;;;;;;;;5074229;28;20329;-83
2022/12/31 09:06:33;;;;;;;10.47;6.10;;;;;;;;;;5074745;28;20370;-82
2022/12/31 09:09:18;;;;;;;9.63;5.67;;;;;;;;;;5074187;28;20318;-83
2022/12/31 09:11:44;;;;;;;10.13;5.20;;;;;;;;;;5074402;28;20317;-83
2022/12/31 09:14:29;;;;;;;10.73;4.67;;;;;;;;;;5074534;28;20283;-83
2022/12/31 09:17:01;;;;;;;9.95;4.05;;;;;;;;;;5074048;28;20370;-83
2022/12/31 09:19:27;;;;;;;11.73;4.40;;;;;;;;;;5056350;28;20052;-83
2022/12/31 09:21:53;;;;;;;8.43;3.10;;;;;;;;;;5074135;28;20294;-81
2022/12/31 09:24:19;;;;;;;8.27;3.47;;;;;;;;;;5073911;28;20294;-83
2022/12/31 09:27:01;;;;;;;8.77;2.60;;;;;;;;;;5056556;28;20378;-84
2022/12/31 09:29:46;;;;;;;7.50;2.50;;;;;;;;;;5074024;28;20362;-84
2022/12/31 09:32:12;;;;;;;8.00;2.53;;;;;;;;;;5073679;28;20289;-83
2022/12/31 09:34:43;;;;;;;7.63;3.03;;;;;;;;;;5073742;28;20404;-85
2022/12/31 09:37:17;;;;;;;9.83;2.67;;;;;;;;;;5073947;28;20325;-82
2022/12/31 09:39:45;;;;;;;9.52;2.25;;;;;;;;;;5073686;28;20849;-84
2022/12/31 09:42:11;;;;;;;9.00;2.27;;;;;;;;;;5073557;28;20128;-83
2022/12/31 09:44:43;;;;;;;8.40;2.20;;;;;;;;;;5055637;28;20718;-82
2022/12/31 09:47:39;;;;;;;6.60;1.90;;;;;;;;;;5056586;28;20369;-83
2022/12/31 09:50:21;;;;;;;6.90;2.10;;;;;;;;;;5073535;28;20279;-84
2022/12/31 09:53:06;;;;;;;7.23;1.80;;;;;;;;;;5056061;28;20299;-80
2022/12/31 09:55:44;;;;;;;5.03;1.42;;;;;;;;;;5073424;28;20357;-85
2022/12/31 09:58:24;;;;;;;7.37;1.60;;;;;;;;;;5073460;28;20040;-86
2022/12/31 10:00:52;;;;;;;10.20;1.80;;;;;;;;;;5072796;28;20765;-82
2022/12/31 10:03:21;;;;;;;7.30;1.70;;;;;;;;;;5055662;28;20796;-82
2022/12/31 10:05:54;;;;;;;7.27;1.60;;;;;;;;;;5055147;28;20852;-81
2022/12/31 10:08:39;;;;;;;7.97;1.60;;;;;;;;;;5073363;28;20366;-82
2022/12/31 10:11:10;;;;;;;12.00;1.60;;;;;;;;;;5073262;28;20318;-85
2022/12/31 10:13:45;;;;;;;9.87;2.03;;;;;;;;;;5055852;28;20127;-86
2022/12/31 10:16:11;;;;;;;;;;;;;;;;;;5073551;28;20770;-80
2022/12/31 10:18:44;;;;;;;10.77;2.10;;;;;;;;;;5055139;28;19931;-80
2022/12/31 10:21:21;;;;;;;9.77;2.40;;;;;;;;;;5055501;28;20377;-78
2022/12/31 10:23:54;;;;;;;12.33;2.30;;;;;;;;;;5073507;28;20287;-80
2022/12/31 10:26:21;;;;;;;15.80;2.37;;;;;;;;;;5073819;28;20267;-81
2022/12/31 10:28:55;;;;;;;9.83;2.00;;;;;;;;;;5055006;28;20294;-82
2022/12/31 10:31:40;;;;;;;10.77;1.80;;;;;;;;;;5073643;28;20279;-79
2022/12/31 10:34:17;;;;;;;12.85;2.60;;;;;;;;;;5055679;28;20305;-78
2022/12/31 10:36:52;;;;;;;10.83;2.53;;;;;;;;;;5073051;28;20127;-78
2022/12/31 10:39:25;;;;;;;11.27;2.00;;;;;;;;;;5073004;28;20333;-78
2022/12/31 10:41:54;;;;;;;13.07;2.50;;;;;;;;;;5072903;28;20504;-78
2022/12/31 10:44:43;;;;;;;15.23;2.73;;;;;;;;;;5072935;28;20294;-81
2022/12/31 10:47:22;;;;;;;8.27;2.37;;;;;;;;;;5072954;28;20325;-80
2022/12/31 10:49:57;;;;;;;12.67;2.47;;;;;;;;;;5072819;28;20347;-80
2022/12/31 10:52:50;;;;;;;15.23;2.90;;;;;;;;;;5073405;28;20495;-80
2022/12/31 10:55:34;;;;;;;14.17;2.17;;;;;;;;;;5034836;28;20330;-81
2022/12/31 10:58:04;;;;;;;20.02;3.28;;;;;;;;;;5072539;28;20759;-78
2022/12/31 11:00:34;;;;;;;18.13;3.20;;;;;;;;;;5073303;28;20053;-88
2022/12/31 11:03:00;;;;;;;14.90;3.20;;;;;;;;;;5076035;28;20299;-86
2022/12/31 11:05:32;;;;;;;16.43;2.40;;;;;;;;;;5078666;28;20287;-87
2022/12/31 11:08:01;;;;;;;14.07;2.50;;;;;;;;;;5076714;28;20287;-78
2022/12/31 11:10:27;;;;;;;16.57;3.20;;;;;;;;;;5076243;28;20370;-76
2022/12/31 11:13:12;;;;;;;21.27;4.13;;;;;;;;;;5076887;28;20306;-80
2022/12/31 11:15:54;;;;;;;20.25;3.10;;;;;;;;;;5076300;28;20279;-78
2022/12/31 11:18:44;;;;;;;19.80;3.87;;;;;;;;;;5076287;28;20044;-81
2022/12/31 11:21:21;;;;;;;16.50;2.97;;;;;;;;;;5058289;28;20321;-77
2022/12/31 11:24:05;;;;;;;20.67;3.50;;;;;;;;;;5058835;28;20377;-78
2022/12/31 11:26:32;;;;;;;15.50;4.47;;;;;;;;;;5076028;28;20340;-79
2022/12/31 11:29:03;;;;;;;15.13;2.60;;;;;;;;;;5076633;28;20092;-83
2022/12/31 11:31:40;;;;;;;14.90;3.27;;;;;;;;;;5042010;28;20338;-87
2022/12/31 11:34:24;;;;;;;15.07;2.90;;;;;;;;;;5076546;28;20287;-83
2022/12/31 11:36:59;;;;;;;17.17;3.47;;;;;;;;;;5075926;28;20814;-86
2022/12/31 11:39:45;;;;;;;16.13;2.95;;;;;;;;;;5076815;28;20332;-85
2022/12/31 11:42:27;;;;;;;14.40;2.50;;;;;;;;;;5075364;28;20087;-87
2022/12/31 11:45:02;;;;;;;14.03;2.60;;;;;;;;;;5076162;28;20290;-83
2022/12/31 11:47:28;;;;;;;14.02;2.55;;;;;;;;;;5058026;28;20298;-82
2022/12/31 11:50:20;;;;;;;13.00;3.20;;;;;;;;;;5075712;28;20135;-86
2022/12/31 11:52:53;;;;;;;10.13;2.50;;;;;;;;;;5037744;28;20334;-83
2022/12/31 11:55:28;;;;;;;12.20;2.43;;;;;;;;;;5058547;28;20294;-81
2022/12/31 11:57:57;;;;;;;15.23;2.70;;;;;;;;;;5075633;28;20627;-80
2022/12/31 12:00:24;;;;;;;15.23;3.10;;;;;;;;;;5075292;28;20286;-79
2022/12/31 12:02:55;;;;;;;15.20;3.17;;;;;;;;;;5075438;28;20298;-79
2022/12/31 12:05:23;;;;;;;11.43;2.57;;;;;;;;;;5041328;28;20318;-81
2022/12/31 12:07:50;;;;;;;11.37;2.30;;;;;;;;;;5057760;28;20279;-80
2022/12/31 12:10:30;;;;;;;13.23;3.43;;;;;;;;;;5075327;28;20286;-81
2022/12/31 12:12:57;;;;;;;14.47;2.87;;;;;;;;;;5057232;28;20286;-86
2022/12/31 12:15:28;;;;;;;13.77;2.97;;;;;;;;;;5075827;28;20290;-85
2022/12/31 12:18:07;;;;;;;25.20;13.33;;;;;;;;;;5057519;28;20318;-83
2022/12/31 12:20:35;;;;;;;16.70;3.00;;;;;;;;;;5074833;28;20707;-84
2022/12/31 12:23:12;;;;;;;14.37;3.73;;;;;;;;;;5074988;28;20290;-85
2022/12/31 12:25:39;;;;;;;17.57;4.20;;;;;;;;;;5057720;28;20275;-84
2022/12/31 12:28:18;;;;;;;14.97;4.90;;;;;;;;;;5057587;28;20290;-85
2022/12/31 12:30:45;;;;;;;18.03;3.57;;;;;;;;;;5074903;28;20283;-84
2022/12/31 12:33:15;;;;;;;16.53;3.67;;;;;;;;;;5074901;28;20376;-84
2022/12/31 12:35:41;;;;;;;20.57;3.33;;;;;;;;;;5075052;28;20793;-85
2022/12/31 12:38:13;;;;;;;16.33;3.80;;;;;;;;;;5075330;28;20771;-84
2022/12/31 12:40:40;;;;;;;15.37;3.67;;;;;;;;;;5074926;28;20319;-83
2022/12/31 12:43:06;;;;;;;16.47;4.13;;;;;;;;;;5057495;28;20306;-84
2022/12/31 12:45:50;;;;;;;16.63;3.40;;;;;;;;;;5057036;28;20291;-80
2022/12/31 12:48:19;;;;;;;18.60;4.13;;;;;;;;;;5074663;28;20282;-83
2022/12/31 12:50:46;;;;;;;21.83;4.20;;;;;;;;;;5074553;28;20378;-85
2022/12/31 12:53:15;;;;;;;16.63;4.00;;;;;;;;;;5074426;28;20820;-84
2022/12/31 12:55:41;;;;;;;16.03;3.77;;;;;;;;;;5056435;28;20318;-85
2022/12/31 12:58:40;;;;;;;19.07;4.17;;;;;;;;;;5056789;28;20295;-83
2022/12/31 13:01:06;;;;;;;15.00;4.00;;;;;;;;;;5019359;28;20315;-83
2022/12/31 13:03:44;;;;;;;15.83;3.40;;;;;;;;;;5074196;28;20287;-83
2022/12/31 13:06:10;;;;;;;25.30;10.80;;;;;;;;;;5074138;28;20291;-83
2022/12/31 13:08:52;;;;;;;16.07;3.30;;;;;;;;;;5056292;28;20294;-82
2022/12/31 13:11:20;;;;;;;17.57;4.33;;;;;;;;;;5074337;28;20360;-82
2022/12/31 13:13:46;;;;;;;17.23;3.83;;;;;;;;;;5056477;28;20291;-82
2022/12/31 13:16:15;;;;;;;16.83;4.37;;;;;;;;;;5056268;28;20286;-81
2022/12/31 13:18:48;;;;;;;15.47;4.30;;;;;;;;;;5074652;28;20322;-80
2022/12/31 13:21:14;;;;;;;21.23;6.77;;;;;;;;;;5073819;28;20345;-79
2022/12/31 13:23:59;;;;;;;16.40;5.17;;;;;;;;;;5073979;28;20295;-81
2022/12/31 13:26:34;;;;;;;20.05;4.88;;;;;;;;;;5073813;28;20332;-80
2022/12/31 13:29:01;;;;;;;16.08;3.65;;;;;;;;;;5056091;28;20040;-79
2022/12/31 13:31:31;;;;;;;17.70;3.90;;;;;;;;;;5074243;28;20083;-80
2022/12/31 13:34:26;;;;;;;17.23;3.93;;;;;;;;;;5073382;28;20352;-81
2022/12/31 13:36:54;;;;;;;15.55;3.22;;;12.50;99.90;;;;;;5052638;28;20287;-83
2022/12/31 13:39:23;;;;;;;13.40;3.20;;;;;;;;;;5073358;28;20071;-83
2022/12/31 13:41:52;;;;;;;17.37;3.60;;;;;;;;;;5055877;28;20302;-81
2022/12/31 13:44:24;;;;;;;15.33;3.33;;;;;;;;;;5075677;28;20334;-79
2022/12/31 13:46:53;;;;;;;17.77;3.20;;;;;;;;;;5076928;28;20329;-79
2022/12/31 13:49:33;;;;;;;12.03;2.80;;;;;;;;;;5073648;28;20283;-80
2022/12/31 13:52:03;;;;;;;12.93;2.67;;;;;;;;;;5073947;28;20745;-81
2022/12/31 13:54:48;;;;;;;11.37;2.30;;;;;;;;;;5073988;28;20285;-80
2022/12/31 13:57:26;;;;;;;11.50;2.40;;;;;;;;;;5074392;28;20318;-81
2022/12/31 13:59:57;;;;;;;12.60;2.73;;;;;;;;;;5055676;28;20323;-79
2022/12/31 14:02:26;;;;;;;12.23;2.93;;;;;;;;;;5073546;28;20298;-79
2022/12/31 14:04:57;;;;;;;13.73;4.13;;;;;;;;;;5073525;28;20323;-79
2022/12/31 14:07:31;;;;;;;11.97;4.03;;;;;;;;;;5073640;28;20355;-78
2022/12/31 14:09:57;;;;;;;14.40;3.43;;;;;;;;;;5073240;28;20762;-79
2022/12/31 14:12:32;;;;;;;16.60;4.40;;;;;;;;;;5073500;28;20303;-78
2022/12/31 14:15:14;;;;;;;14.05;4.03;;;;;;;;;;5055727;28;20793;-79
2022/12/31 14:17:59;;;;;;;11.27;3.07;;;;;;;;;;5073445;28;20055;-78
2022/12/31 14:20:25;;;;;;;11.90;2.95;;;;;;;;;;5073982;28;20329;-80
2022/12/31 14:22:59;;;;;;;9.43;2.50;;;;;;;;;;5055741;28;20044;-78
2022/12/31 14:25:27;;;;;;;10.03;2.90;;;;;;;;;;5073451;28;20278;-79
2022/12/31 14:27:55;;;;;;;7.33;1.97;;;;;;;;;;5073303;28;20366;-80
2022/12/31 14:30:29;;;;;;;5.40;1.73;;;;;;;;;;5073295;28;20279;-80
2022/12/31 14:32:55;;;;;;;7.40;1.75;;;;;;;;;;5073315;28;20315;-78
2022/12/31 14:35:21;;;;;;;7.67;1.93;;;;;;;;;;5074425;28;20078;-79
2022/12/31 14:37:50;;;;;;;5.67;1.90;;;;;;;;;;5077181;28;20322;-81
2022/12/31 14:40:23;;;;;;;5.97;2.07;;;;;;;;;;5077208;28;20639;-77
2022/12/31 14:43:04;;;;;;;7.40;2.50;;;;;;;;;;5076985;28;20382;-81
2022/12/31 14:45:38;;;;;;;5.87;2.27;;;;;;;;;;5077981;28;20325;-80
2022/12/31 14:48:13;;;;;;;6.18;1.92;;;;;;;;;;5077102;28;20357;-79
2022/12/31 14:50:39;;;;;;;3.88;1.50;;;;;;;;;;5077002;28;20040;-80
2022/12/31 14:53:07;;;;;;;7.97;1.43;;;;;;;;;;5077234;28;20358;-79
2022/12/31 14:55:37;;;;;;;6.13;1.20;;;;;;;;;;5077018;28;20286;-78
2022/12/31 14:58:19;;;;;;;3.17;1.20;;;;;;;;;;5060042;28;20293;-77
2022/12/31 15:00:57;;;;;;;5.00;1.40;;;;;;;;;;5076505;28;20803;-78
2022/12/31 15:03:24;;;;;;;6.03;1.50;;;;;;;;;;5076903;28;20309;-80
2022/12/31 15:05:53;;;;;;;5.10;1.50;;;;;;;;;;5076703;28;20282;-79
2022/12/31 15:08:29;;;;;;;5.97;1.70;;;;;;;;;;5076349;28;20774;-79
2022/12/31 15:11:01;;;;;;;8.50;2.27;;;;;;;;;;5076576;28;20290;-80
2022/12/31 15:13:36;;;;;;;6.90;2.97;;;;;;;;;;5076612;28;20278;-79
2022/12/31 15:16:05;;;;;;;8.13;3.45;;;;;;;;;;5077393;28;20325;-81